Airfield :
LOGIN :

Register | Disclaimer

   EN    FR    IT 

 










Legend :    VFR   Marginal VFR   IFR   Intensive IFR   Very Intensive IFR
Visi :
Ceiling :
>= 8 km
>= 3000ft
5 to 8 km
1000 to 3000 ft
1500m to 5 km
500 to 1000 ft
800 to 1500m
200 to 500 ft
< 800m
< 200 ft
Symbols :   Thunderstorms  Fog  Heavy snow  Heavy precipitations  Wind > 20 kt
SIGMETs :     Misc.  Thunderstorms  Icing  Turbulence  Mountain Waves  Volcanic Ashes







- Airport Elevation : 79 ft
- IATA code : NSY


LICZ - Sigonella (Mil) Catania

CURRENT METAR :
  • 180655Z 28005KT 7000 NSC 15/15 Q1021 RMK FEW FEW200 VIS MIN 7000 WIND THR28 29005KT WIND THR10 29004KT A3016 WHT

EXPIRED METARs :
  • 180555Z 24005KT 8000 NSC 13/13 Q1020 RMK SCT SCT200 VIS MIN 7000E WIND THR28 24005KT WIND THR10 25005KT A3014 WHT
  • 180455Z 25004KT 8000 FEW100 14/14 Q1020 RMK FEW VIS MIN 8000 WIND THR28 24004KT WIND THR10 25004KT A3014 BLU

TAF TAF LICZ
Valid from the 18 at 06:00 until the 18 at 15:00 UTC


180500Z 1806/1815 28005KT 9999 FEW050
No reported NOTAMs for that airfield.



MET'MAP, your aeronautical weather chart ! - Copyright ORBIFLY December 2007 - Disclaimer

ORBIFLY MET'MAP TEAM :

Programming & Development : Alexandra Zaïnal
Concept & Development : Baudouin d'Aumeries
Co-Development & Prog : Marc-Olivier Méhu
Technical & hardware support : Manuel Goepfert

Contact : metmap@orbifly.com




SOURCES & CREDITS :

   NOAA